Mijn Webcam Meer informatie Mijn Webcam


webcam richting noord-oost Meer informatie webcam facing north-east


Regen radar Meer informatie rain snow radar


Bezoek onze andere website:

Template documentation
and downloads

And another site



METAR rapporten vliegvelden

   
EHGG - Groningen/Eelde
Gewijzigd: 20-05-2018 13:55
Grotendeels bewolkt  
Grotendeels bewolkt  
   Wind: Oosten 3.6 m/s
Wind: Oosten 3.6 m/s
Temperatuur: 21°C
Dauwpunt: 13°C
Vochtigheid: 60%
Barometer: 1023 hPa
Bewolking: Grotendeels bewolkt
Zicht: meer dan 10 km
Bewolking: Grotendeels bewolkt 1127.8 m
EHGG 201155Z AUTO 09007KT 040V160 9999 BKN037 21/13 Q1023 NOSIG
EHMA - Schiermonnikoog
Gewijzigd: 20-05-2018 13:25
Gedeeltelijk bewolkt  
Gedeeltelijk bewolkt  
   Wind: NO 5.1 m/s
Wind: NO 5.1 m/s
Temperatuur: 16°C
Dauwpunt: 13°C
Vochtigheid: 83%
Barometer: 1024 hPa
Bewolking: Gedeeltelijk bewolkt
Zicht: 7 km
Bewolking: Licht bewolkt 1219.2 m,
Gedeeltelijk bewolkt 1371.6 m
EHMA 201125Z AUTO 05010KT 7000 FEW040 SCT045 16/13 Q1024 W///H///
EHMG - Terschelling
Gewijzigd: 20-05-2018 13:25
Mist, Bewolking  
Mist, Bewolking  
   Wind: ONO 3.1 m/s
Wind: ONO 3.1 m/s
Temperatuur: 14°C
Dauwpunt: 12°C
Vochtigheid: 88%
Barometer: 1024 hPa
Bewolking: Bewolking
Zicht: 1 km
Bewolking: Bewolking
EHMG 201125Z AUTO 07006KT 0700 FG VV000 14/12 Q1024 W///H///
EHVL - Vlieland
Gewijzigd: 20-05-2018 13:55
Helder  
Helder  
   Wind: NNO 4.6 m/s
Wind: NNO 4.6 m/s
Temperatuur: 18°C
Dauwpunt: 11°C
Vochtigheid: 64%
Barometer: 1024 hPa
Bewolking: Helder
Bewolking: Helder
EHVL 201155Z AUTO 02009KT //// // NCD 18/11 Q1024 RE//
  

Script ontwikkeld door  Saratoga-weather.org Aangepast voor de template door  Weerstation Leuven

U vindt ons ook hier:

Het Weer Aktueel

UK Metoffice

European Weather Network

WeatherCloud

Weather Underground

AWEKAS

WeatherlinkIP

HAMweather, WeatherForYou, PWS Weather

  

Apparatuur in gebruik:

Weerstation
Davis VP2 Plus

Weerprogramma
Cumulus

Weercomputer
ASUS Eee Box B202

Webleverancier
Antagonist

Davis VP2 Plus

Cumulus

ASUS Eee Box B202

Antagonist